createdAt,value
2022-09-04T00:00:39.217Z,985.31
2022-09-04T00:01:44.979Z,985.32
2022-09-04T00:02:39.217Z,985.31
2022-09-04T00:03:39.294Z,985.32
2022-09-04T00:04:39.302Z,985.30
2022-09-04T00:05:39.164Z,985.31
2022-09-04T00:06:39.170Z,985.32
2022-09-04T00:07:39.148Z,985.34
2022-09-04T00:08:39.148Z,985.35
2022-09-04T00:09:39.119Z,985.36
2022-09-04T00:10:39.112Z,985.36
2022-09-04T00:11:39.165Z,985.37
2022-09-04T00:12:39.094Z,985.38
2022-09-04T00:13:39.101Z,985.39
2022-09-04T00:14:39.067Z,985.39
2022-09-04T00:15:39.065Z,985.38
2022-09-04T00:16:39.075Z,985.37
2022-09-04T00:17:39.037Z,985.36
2022-09-04T00:18:39.072Z,985.35
2022-09-04T00:19:39.051Z,985.36
2022-09-04T00:20:39.739Z,985.36
2022-09-04T00:21:39.039Z,985.35
2022-09-04T00:22:38.983Z,985.35
2022-09-04T00:23:39.017Z,985.35
2022-09-04T00:24:38.964Z,985.36
2022-09-04T00:25:38.976Z,985.37
2022-09-04T00:26:38.954Z,985.39
2022-09-04T00:27:38.935Z,985.40
2022-09-04T00:28:38.920Z,985.41
2022-09-04T00:29:38.920Z,985.42
2022-09-04T00:30:38.952Z,985.43
2022-09-04T00:31:38.960Z,985.43
2022-09-04T00:32:38.903Z,985.44
2022-09-04T00:33:38.877Z,985.45
2022-09-04T00:34:38.864Z,985.47
2022-09-04T00:35:39.406Z,985.48
2022-09-04T00:36:38.846Z,985.49
2022-09-04T00:37:38.835Z,985.49
2022-09-04T00:38:38.817Z,985.50
2022-09-04T00:39:38.850Z,985.51
2022-09-04T00:40:38.806Z,985.53
2022-09-04T00:41:38.812Z,985.54
2022-09-04T00:42:38.798Z,985.55
2022-09-04T00:43:38.772Z,985.56
2022-09-04T00:44:38.762Z,985.58
2022-09-04T00:45:38.785Z,985.59
2022-09-04T00:46:38.766Z,985.59
2022-09-04T00:47:38.723Z,985.60
2022-09-04T00:48:38.714Z,985.60
2022-09-04T00:49:38.704Z,985.60
2022-09-04T00:50:38.693Z,985.61
2022-09-04T00:51:38.723Z,985.62
2022-09-04T00:52:38.672Z,985.62
2022-09-04T00:53:38.662Z,985.63
2022-09-04T00:54:38.653Z,985.63
2022-09-04T00:55:38.647Z,985.64
2022-09-04T00:56:38.634Z,985.65
2022-09-04T00:57:38.642Z,985.64
2022-09-04T00:58:38.627Z,985.66
2022-09-04T00:59:38.620Z,985.66
2022-09-04T01:00:38.592Z,985.67
2022-09-04T01:01:38.664Z,985.67
2022-09-04T01:02:38.569Z,985.68
2022-09-04T01:03:38.588Z,985.67
2022-09-04T01:04:38.550Z,985.67
2022-09-04T01:06:34.207Z,985.66
2022-09-04T01:07:35.206Z,985.66
2022-09-04T01:08:35.203Z,985.67
2022-09-04T01:09:35.211Z,985.69
2022-09-04T01:10:35.167Z,985.71
2022-09-04T01:11:35.158Z,985.73
2022-09-04T01:12:35.143Z,985.75
2022-09-04T01:13:35.264Z,985.76
2022-09-04T01:14:35.168Z,985.77
2022-09-04T01:15:35.117Z,985.77
2022-09-04T01:16:35.152Z,985.77
2022-09-04T01:17:35.097Z,985.79
2022-09-04T01:18:35.081Z,985.79
2022-09-04T01:19:35.077Z,985.80
2022-09-04T01:20:35.088Z,985.81
2022-09-04T01:21:35.053Z,985.82
2022-09-04T01:22:35.043Z,985.82
2022-09-04T01:23:35.037Z,985.82
2022-09-04T01:24:35.026Z,985.82
2022-09-04T01:25:35.013Z,985.81
2022-09-04T01:26:35.032Z,985.80
2022-09-04T01:27:34.993Z,985.80
2022-09-04T01:28:34.976Z,985.80
2022-09-04T01:29:34.968Z,985.80
2022-09-04T01:30:34.957Z,985.81
2022-09-04T01:31:35.015Z,985.80
2022-09-04T01:32:34.957Z,985.80
2022-09-04T01:33:34.928Z,985.81
2022-09-04T01:34:34.924Z,985.81
2022-09-04T01:35:34.912Z,985.81
2022-09-04T01:36:34.901Z,985.82
2022-09-04T01:37:34.886Z,985.83
2022-09-04T01:38:34.904Z,985.84
2022-09-04T01:39:34.913Z,985.85
2022-09-04T01:40:36.035Z,985.85
2022-09-04T01:41:38.355Z,985.86
2022-09-04T01:42:34.834Z,985.85
2022-09-04T01:43:34.827Z,985.85
2022-09-04T01:44:34.814Z,985.84
2022-09-04T01:45:34.885Z,985.84
2022-09-04T01:46:34.796Z,985.83
2022-09-04T01:47:34.784Z,985.83
2022-09-04T01:48:34.783Z,985.84
2022-09-04T01:49:34.760Z,985.84
2022-09-04T01:50:34.772Z,985.86
2022-09-04T01:51:34.761Z,985.86
2022-09-04T01:52:34.739Z,985.85
2022-09-04T01:53:34.748Z,985.83
2022-09-04T01:54:34.707Z,985.83
2022-09-04T01:55:34.697Z,985.84
2022-09-04T01:56:34.708Z,985.85
2022-09-04T01:57:34.680Z,985.87
2022-09-04T01:58:34.667Z,985.89
2022-09-04T01:59:34.660Z,985.90
2022-09-04T02:00:34.645Z,985.91
2022-09-04T02:01:34.741Z,985.90
2022-09-04T02:02:34.721Z,985.88
2022-09-04T02:03:34.615Z,985.86
2022-09-04T02:04:34.606Z,985.86
2022-09-04T02:05:34.595Z,985.87
2022-09-04T02:06:34.606Z,985.88
2022-09-04T02:07:34.572Z,985.88
2022-09-04T02:08:34.560Z,985.89
2022-09-04T02:09:34.555Z,985.89
2022-09-04T02:10:34.565Z,985.90
2022-09-04T02:11:34.532Z,985.89
2022-09-04T02:12:34.543Z,985.88
2022-09-04T02:13:34.512Z,985.90
2022-09-04T02:14:34.498Z,985.92
2022-09-04T02:15:34.495Z,985.94
2022-09-04T02:16:34.559Z,985.95
2022-09-04T02:17:34.477Z,985.95
2022-09-04T02:18:34.455Z,985.94
2022-09-04T02:19:34.448Z,985.93
2022-09-04T02:20:34.442Z,985.92
2022-09-04T02:21:34.432Z,985.90
2022-09-04T02:22:34.438Z,985.91
2022-09-04T02:23:34.406Z,985.91
2022-09-04T02:24:34.400Z,985.92
2022-09-04T02:25:34.387Z,985.92
2022-09-04T02:26:34.374Z,985.92
2022-09-04T02:27:34.388Z,985.92
2022-09-04T02:28:34.359Z,985.93
2022-09-04T02:29:34.348Z,985.94
2022-09-04T02:30:34.332Z,985.95
2022-09-04T02:31:34.394Z,985.96
2022-09-04T02:32:34.335Z,985.97
2022-09-04T02:33:34.306Z,985.98
2022-09-04T02:34:34.297Z,985.99
2022-09-04T02:35:34.308Z,986.01
2022-09-04T02:36:34.277Z,986.02
2022-09-04T02:37:34.263Z,986.04
2022-09-04T02:38:34.249Z,986.06
2022-09-04T02:39:34.310Z,986.07
2022-09-04T02:40:34.230Z,986.08
2022-09-04T02:41:34.239Z,986.08
2022-09-04T02:42:34.244Z,986.09
2022-09-04T02:43:34.198Z,986.09
2022-09-04T02:44:34.188Z,986.10
2022-09-04T02:45:34.188Z,986.10
2022-09-04T02:46:34.199Z,986.10
2022-09-04T02:47:34.188Z,986.10
2022-09-04T02:48:34.147Z,986.09
2022-09-04T02:49:34.144Z,986.08
2022-09-04T02:50:34.157Z,986.08
2022-09-04T02:51:34.123Z,986.09
2022-09-04T02:52:34.106Z,986.11
2022-09-04T02:53:34.120Z,986.12
2022-09-04T02:54:34.087Z,986.13
2022-09-04T02:55:34.083Z,986.15
2022-09-04T02:56:34.062Z,986.14
2022-09-04T02:57:34.065Z,986.13
2022-09-04T02:58:34.046Z,986.12
2022-09-04T02:59:34.059Z,986.11
2022-09-04T03:00:34.099Z,986.12
2022-09-04T03:01:34.045Z,986.14
2022-09-04T03:02:34.030Z,986.16
2022-09-04T03:03:33.992Z,986.18
2022-09-04T03:04:34.008Z,986.20
2022-09-04T03:05:33.981Z,986.21
2022-09-04T03:06:33.962Z,986.21
2022-09-04T03:07:33.955Z,986.20
2022-09-04T03:08:36.360Z,986.21
2022-09-04T03:09:33.935Z,986.22
2022-09-04T03:10:33.945Z,986.22
2022-09-04T03:11:33.911Z,986.21
2022-09-04T03:12:33.896Z,986.21
2022-09-04T03:13:33.893Z,986.21
2022-09-04T03:14:33.898Z,986.21
2022-09-04T03:15:33.870Z,986.22
2022-09-04T03:16:33.885Z,986.23
2022-09-04T03:17:33.857Z,986.25
2022-09-04T03:18:33.838Z,986.27
2022-09-04T03:19:33.847Z,986.28
2022-09-04T03:20:33.816Z,986.29
2022-09-04T03:21:33.809Z,986.30
2022-09-04T03:22:33.794Z,986.32
2022-09-04T03:23:33.788Z,986.33
2022-09-04T03:24:33.781Z,986.34
2022-09-04T03:25:33.787Z,986.34
2022-09-04T03:26:33.777Z,986.36
2022-09-04T03:27:33.751Z,986.38
2022-09-04T03:28:33.732Z,986.38
2022-09-04T03:29:33.727Z,986.38
2022-09-04T03:30:33.714Z,986.38
2022-09-04T03:31:33.926Z,986.37
2022-09-04T03:32:33.692Z,986.37
2022-09-04T03:33:33.685Z,986.37
2022-09-04T03:34:33.704Z,986.38
2022-09-04T03:35:33.667Z,986.39
2022-09-04T03:36:33.646Z,986.40
2022-09-04T03:37:33.667Z,986.41
2022-09-04T03:38:33.656Z,986.42
2022-09-04T03:39:33.670Z,986.43
2022-09-04T03:40:33.610Z,986.43
2022-09-04T03:41:33.607Z,986.42
2022-09-04T03:42:33.593Z,986.41
2022-09-04T03:43:33.621Z,986.39
2022-09-04T03:44:33.585Z,986.37
2022-09-04T03:45:33.585Z,986.37
2022-09-04T03:46:33.603Z,986.38
2022-09-04T03:47:33.539Z,986.39
2022-09-04T03:48:33.530Z,986.40
2022-09-04T03:49:33.519Z,986.40
2022-09-04T03:50:33.503Z,986.39
2022-09-04T03:51:33.520Z,986.38
2022-09-04T03:52:33.484Z,986.38
2022-09-04T03:53:33.478Z,986.38
2022-09-04T03:54:33.467Z,986.39
2022-09-04T03:55:33.460Z,986.41
2022-09-04T03:56:33.462Z,986.42
2022-09-04T03:57:33.435Z,986.41
2022-09-04T03:58:33.421Z,986.41
2022-09-04T03:59:33.414Z,986.41
2022-09-04T04:00:33.451Z,986.42
2022-09-04T04:01:33.438Z,986.45
2022-09-04T04:02:33.419Z,986.47
2022-09-04T04:03:33.373Z,986.49
2022-09-04T04:04:33.372Z,986.49
2022-09-04T04:05:33.353Z,986.50
2022-09-04T04:06:33.336Z,986.50
2022-09-04T04:07:33.362Z,986.50
2022-09-04T04:08:33.319Z,986.51
2022-09-04T04:09:33.317Z,986.53
2022-09-04T04:10:33.302Z,986.54
2022-09-04T04:11:33.295Z,986.55
2022-09-04T04:12:33.274Z,986.55
2022-09-04T04:13:33.244Z,986.55
2022-09-04T04:14:33.211Z,986.56
2022-09-04T04:15:33.224Z,986.56
2022-09-04T04:16:33.312Z,986.56
2022-09-04T04:17:33.229Z,986.55
2022-09-04T04:18:33.217Z,986.56
2022-09-04T04:19:33.212Z,986.56
2022-09-04T04:20:33.142Z,986.55
2022-09-04T04:21:33.133Z,986.55
2022-09-04T04:22:33.122Z,986.54
2022-09-04T04:23:33.111Z,986.54
2022-09-04T04:24:33.098Z,986.55
2022-09-04T04:25:33.131Z,986.56
2022-09-04T04:26:33.075Z,986.57
2022-09-04T04:27:33.072Z,986.58
2022-09-04T04:28:33.056Z,986.60
2022-09-04T04:29:33.045Z,986.61
2022-09-04T04:30:33.038Z,986.62
2022-09-04T04:31:33.082Z,986.65
2022-09-04T04:32:33.020Z,986.66
2022-09-04T04:33:33.007Z,986.68
2022-09-04T04:34:33.009Z,986.69
2022-09-04T04:35:32.982Z,986.69
2022-09-04T04:36:32.977Z,986.69
2022-09-04T04:37:32.980Z,986.69
2022-09-04T04:38:32.960Z,986.71
2022-09-04T04:39:32.979Z,986.72
2022-09-04T04:40:32.977Z,986.74
2022-09-04T04:41:32.919Z,986.75
2022-09-04T04:42:32.916Z,986.75
2022-09-04T04:43:32.922Z,986.76
2022-09-04T04:44:32.892Z,986.76
2022-09-04T04:45:32.879Z,986.78
2022-09-04T04:46:32.923Z,986.79
2022-09-04T04:47:32.863Z,986.80
2022-09-04T04:48:32.869Z,986.81
2022-09-04T04:49:32.840Z,986.83
2022-09-04T04:50:32.831Z,986.84
2022-09-04T04:51:32.819Z,986.85
2022-09-04T04:52:32.818Z,986.86
2022-09-04T04:53:32.798Z,986.85
2022-09-04T04:54:32.810Z,986.86
2022-09-04T04:55:32.781Z,986.86
2022-09-04T04:56:32.769Z,986.88
2022-09-04T04:57:32.757Z,986.90
2022-09-04T04:58:32.748Z,986.92
2022-09-04T04:59:32.758Z,986.95
2022-09-04T05:00:32.746Z,986.97
2022-09-04T05:01:32.813Z,986.97
2022-09-04T05:02:32.815Z,986.98
2022-09-04T05:03:32.694Z,986.98
2022-09-04T05:04:32.689Z,986.99
2022-09-04T05:05:32.677Z,987.00
2022-09-04T05:06:32.683Z,987.01
2022-09-04T05:07:32.658Z,987.02
2022-09-04T05:08:32.644Z,987.02
2022-09-04T05:09:32.632Z,987.02
2022-09-04T05:10:32.621Z,987.02
2022-09-04T05:11:32.626Z,987.01
2022-09-04T05:12:32.603Z,987.01
2022-09-04T05:13:32.589Z,987.01
2022-09-04T05:14:32.583Z,987.02
2022-09-04T05:15:32.568Z,987.03
2022-09-04T05:16:32.612Z,987.04
2022-09-04T05:17:32.549Z,987.06
2022-09-04T05:18:32.539Z,987.07
2022-09-04T05:19:32.529Z,987.08
2022-09-04T05:20:32.523Z,987.09
2022-09-04T05:21:32.507Z,987.10
2022-09-04T05:22:34.392Z,987.12
2022-09-04T05:23:32.485Z,987.12
2022-09-04T05:24:32.484Z,987.13
2022-09-04T05:25:32.463Z,987.14
2022-09-04T05:26:32.459Z,987.15
2022-09-04T05:27:32.446Z,987.16
2022-09-04T05:28:32.474Z,987.19
2022-09-04T05:29:32.833Z,987.21
2022-09-04T05:30:32.415Z,987.23
2022-09-04T05:31:32.454Z,987.25
2022-09-04T05:32:32.396Z,987.27
2022-09-04T05:33:32.407Z,987.28
2022-09-04T05:34:32.377Z,987.29
2022-09-04T05:35:35.569Z,987.30
2022-09-04T05:36:32.356Z,987.32
2022-09-04T05:37:32.376Z,987.35
2022-09-04T05:38:32.352Z,987.37
2022-09-04T05:39:32.386Z,987.38
2022-09-04T05:40:32.316Z,987.39
2022-09-04T05:41:32.303Z,987.39
2022-09-04T05:42:32.290Z,987.41
2022-09-04T05:43:32.275Z,987.43
2022-09-04T05:44:32.303Z,987.46
2022-09-04T05:45:32.256Z,987.48
2022-09-04T05:46:32.442Z,987.49
2022-09-04T05:47:32.245Z,987.50
2022-09-04T05:48:32.240Z,987.51
2022-09-04T05:49:32.218Z,987.52
2022-09-04T05:50:32.237Z,987.54
2022-09-04T05:51:32.197Z,987.57
2022-09-04T05:52:32.187Z,987.60
2022-09-04T05:53:32.175Z,987.62
2022-09-04T05:54:32.168Z,987.63
2022-09-04T05:55:32.267Z,987.63
2022-09-04T05:56:32.151Z,987.62
2022-09-04T05:57:32.140Z,987.61
2022-09-04T05:58:32.127Z,987.61
2022-09-04T05:59:32.117Z,987.62
2022-09-04T06:00:32.106Z,987.62
2022-09-04T06:01:32.157Z,987.63
2022-09-04T06:02:32.156Z,987.63
2022-09-04T06:03:32.086Z,987.63
2022-09-04T06:04:32.066Z,987.64
2022-09-04T06:05:32.051Z,987.64
2022-09-04T06:06:32.051Z,987.64
2022-09-04T06:07:32.050Z,987.63
2022-09-04T06:08:32.185Z,987.63
2022-09-04T06:09:32.013Z,987.62
2022-09-04T06:10:32.003Z,987.62
2022-09-04T06:11:31.989Z,987.62
2022-09-04T06:12:32.013Z,987.62
2022-09-04T06:13:31.979Z,987.63
2022-09-04T06:14:31.960Z,987.65
2022-09-04T06:15:31.944Z,987.66
2022-09-04T06:16:31.940Z,987.66
2022-09-04T06:17:31.923Z,987.67
2022-09-04T06:18:31.940Z,987.69
2022-09-04T06:19:31.947Z,987.70
2022-09-04T06:20:31.895Z,987.71
2022-09-04T06:21:31.884Z,987.72
2022-09-04T06:22:31.880Z,987.74
2022-09-04T06:23:31.886Z,987.76
2022-09-04T06:24:31.860Z,987.79
2022-09-04T06:25:31.841Z,987.81
2022-09-04T06:26:31.836Z,987.80
2022-09-04T06:27:34.496Z,987.79
2022-09-04T06:28:31.819Z,987.79
2022-09-04T06:29:31.843Z,987.78
2022-09-04T06:30:31.797Z,987.78
2022-09-04T06:31:31.868Z,987.77
2022-09-04T06:32:31.776Z,987.77
2022-09-04T06:33:31.764Z,987.75
2022-09-04T06:34:31.773Z,987.74
2022-09-04T06:35:31.761Z,987.75
2022-09-04T06:36:31.740Z,987.76
2022-09-04T06:37:31.716Z,987.79
2022-09-04T06:38:31.714Z,987.80
2022-09-04T06:39:31.746Z,987.80
2022-09-04T06:40:31.704Z,987.81
2022-09-04T06:41:31.694Z,987.82
2022-09-04T06:42:31.673Z,987.82
2022-09-04T06:43:31.657Z,987.83
2022-09-04T06:44:31.651Z,987.83
2022-09-04T06:45:31.660Z,987.84
2022-09-04T06:46:31.736Z,987.84
2022-09-04T06:47:31.616Z,987.84
2022-09-04T06:48:31.612Z,987.83
2022-09-04T06:49:31.596Z,987.83
2022-09-04T06:50:31.589Z,987.84
2022-09-04T06:51:32.643Z,987.85
2022-09-04T06:52:31.589Z,987.86
2022-09-04T06:53:31.561Z,987.87
2022-09-04T06:54:32.348Z,987.87
2022-09-04T06:55:31.541Z,987.88
2022-09-04T06:56:31.548Z,987.87
2022-09-04T06:57:31.517Z,987.88
2022-09-04T06:58:31.506Z,987.88
2022-09-04T06:59:31.511Z,987.89
2022-09-04T07:00:31.488Z,987.89
2022-09-04T07:01:31.607Z,987.89
2022-09-04T07:02:31.603Z,987.90
2022-09-04T07:03:31.449Z,987.91
2022-09-04T07:04:31.446Z,987.93
2022-09-04T07:05:31.454Z,987.95
2022-09-04T07:06:31.422Z,987.98
2022-09-04T07:07:31.412Z,988.00
2022-09-04T07:08:31.397Z,988.01
2022-09-04T07:09:31.419Z,988.01
2022-09-04T07:10:31.395Z,988.01
2022-09-04T07:11:31.367Z,988.01
2022-09-04T07:12:31.369Z,988.02
2022-09-04T07:13:31.348Z,988.04
2022-09-04T07:14:31.347Z,988.05
2022-09-04T07:15:31.408Z,988.06
2022-09-04T07:16:31.313Z,988.08
2022-09-04T07:17:31.304Z,988.10
2022-09-04T07:18:31.324Z,988.11
2022-09-04T07:19:31.283Z,988.11
2022-09-04T07:20:31.274Z,988.11
2022-09-04T07:21:31.287Z,988.12
2022-09-04T07:22:31.251Z,988.13
2022-09-04T07:23:31.237Z,988.13
2022-09-04T07:24:31.246Z,988.12
2022-09-04T07:25:31.215Z,988.11
2022-09-04T07:26:31.259Z,988.10
2022-09-04T07:27:31.208Z,988.09
2022-09-04T07:28:31.188Z,988.09
2022-09-04T07:29:31.175Z,988.09
2022-09-04T07:30:31.178Z,988.09
2022-09-04T07:31:31.194Z,988.08
2022-09-04T07:32:31.167Z,988.09
2022-09-04T07:33:31.136Z,988.10
2022-09-04T07:34:31.132Z,988.12
2022-09-04T07:35:31.122Z,988.13
2022-09-04T07:36:31.943Z,988.14
2022-09-04T07:37:31.117Z,988.15
2022-09-04T07:38:31.090Z,988.17
2022-09-04T07:39:31.123Z,988.18
2022-09-04T07:40:31.072Z,988.18
2022-09-04T07:41:31.056Z,988.19
2022-09-04T07:42:31.189Z,988.20
2022-09-04T07:43:31.056Z,988.22
2022-09-04T07:44:31.028Z,988.24
2022-09-04T07:45:31.013Z,988.27
2022-09-04T07:46:31.057Z,988.28
2022-09-04T07:47:30.990Z,988.29
2022-09-04T07:48:31.012Z,988.30
2022-09-04T07:49:30.969Z,988.30
2022-09-04T07:50:30.978Z,988.31
2022-09-04T07:51:30.947Z,988.31
2022-09-04T07:52:30.967Z,988.31
2022-09-04T07:53:30.928Z,988.32
2022-09-04T07:54:30.924Z,988.32
2022-09-04T07:55:30.929Z,988.32
2022-09-04T07:56:30.899Z,988.32
2022-09-04T07:57:30.893Z,988.33
2022-09-04T07:58:30.881Z,988.35
2022-09-04T07:59:30.871Z,988.37
2022-09-04T08:00:30.884Z,988.38
2022-09-04T08:01:30.872Z,988.39
2022-09-04T08:02:30.840Z,988.40
2022-09-04T08:03:30.842Z,988.41
2022-09-04T08:04:30.862Z,988.42
2022-09-04T08:05:30.804Z,988.43
2022-09-04T08:06:30.810Z,988.44
2022-09-04T08:07:30.785Z,988.45
2022-09-04T08:08:30.800Z,988.46
2022-09-04T08:09:30.761Z,988.48
2022-09-04T08:10:30.765Z,988.48
2022-09-04T08:11:30.744Z,988.49
2022-09-04T08:12:30.740Z,988.49
2022-09-04T08:13:30.722Z,988.48
2022-09-04T08:14:30.733Z,988.49
2022-09-04T08:15:30.728Z,988.48
2022-09-04T08:16:30.692Z,988.48
2022-09-04T08:17:30.677Z,988.50
2022-09-04T08:18:30.690Z,988.51
2022-09-04T08:19:30.657Z,988.52
2022-09-04T08:20:30.652Z,988.52
2022-09-04T08:21:30.635Z,988.52
2022-09-04T08:22:30.623Z,988.51
2022-09-04T08:23:30.609Z,988.51
2022-09-04T08:24:30.629Z,988.51
2022-09-04T08:25:30.592Z,988.52
2022-09-04T08:26:30.586Z,988.53
2022-09-04T08:27:30.576Z,988.53
2022-09-04T08:28:30.574Z,988.53
2022-09-04T08:29:30.575Z,988.54
2022-09-04T08:30:30.547Z,988.54
2022-09-04T08:31:30.584Z,988.54
2022-09-04T08:32:36.767Z,988.54
2022-09-04T08:33:30.528Z,988.54
2022-09-04T08:35:25.482Z,988.53
2022-09-04T08:36:26.454Z,988.53
2022-09-04T08:37:33.975Z,988.54
2022-09-04T08:38:26.561Z,988.54
2022-09-04T08:39:26.449Z,988.54
2022-09-04T08:40:26.421Z,988.55
2022-09-04T08:41:26.392Z,988.55
2022-09-04T08:42:26.393Z,988.54
2022-09-04T08:43:26.369Z,988.54
2022-09-04T08:44:26.359Z,988.55
2022-09-04T08:45:26.385Z,988.54
2022-09-04T08:46:28.946Z,988.57
2022-09-04T08:47:26.363Z,988.59
2022-09-04T08:48:26.478Z,988.56
2022-09-04T08:49:26.309Z,988.59
2022-09-04T08:50:26.290Z,988.62
2022-09-04T08:51:26.316Z,988.58
2022-09-04T08:52:26.273Z,988.60
2022-09-04T08:53:26.278Z,988.61
2022-09-04T08:54:26.246Z,988.61
2022-09-04T08:55:26.247Z,988.59
2022-09-04T08:56:26.254Z,988.61
2022-09-04T08:57:26.230Z,988.60
2022-09-04T08:58:26.247Z,988.64
2022-09-04T08:59:26.201Z,988.60
2022-09-04T09:00:26.200Z,988.61
2022-09-04T09:01:26.224Z,988.60
2022-09-04T09:02:26.273Z,988.62
2022-09-04T09:03:26.161Z,988.61
2022-09-04T09:04:26.148Z,988.61
2022-09-04T09:05:26.148Z,988.57
2022-09-04T09:06:26.131Z,988.59
2022-09-04T09:07:26.128Z,988.58
2022-09-04T09:08:30.965Z,988.56
2022-09-04T09:09:26.108Z,988.56
2022-09-04T09:10:26.098Z,988.57
2022-09-04T09:11:26.080Z,988.56
2022-09-04T09:12:26.103Z,988.56
2022-09-04T09:13:26.066Z,988.56
2022-09-04T09:14:26.064Z,988.56
2022-09-04T09:15:26.043Z,988.57
2022-09-04T09:16:26.109Z,988.57
2022-09-04T09:17:29.989Z,988.55
2022-09-04T09:18:26.175Z,988.53
2022-09-04T09:19:26.010Z,988.51
2022-09-04T09:20:25.983Z,988.51
2022-09-04T09:21:25.998Z,988.50
2022-09-04T09:22:25.959Z,988.52
2022-09-04T09:23:25.965Z,988.50
2022-09-04T09:24:25.934Z,988.51
2022-09-04T09:25:25.930Z,988.49
2022-09-04T09:26:25.916Z,988.49
2022-09-04T09:27:25.942Z,988.50
2022-09-04T09:28:25.897Z,988.50
2022-09-04T09:29:25.889Z,988.48
2022-09-04T09:30:25.924Z,988.47
2022-09-04T09:31:25.859Z,988.47
2022-09-04T09:32:25.877Z,988.48
2022-09-04T09:33:26.061Z,988.46
2022-09-04T09:34:25.828Z,988.45
2022-09-04T09:35:25.818Z,988.44
2022-09-04T09:36:25.808Z,988.43
2022-09-04T09:37:25.812Z,988.45
2022-09-04T09:38:25.809Z,988.46
2022-09-04T09:39:25.832Z,988.50
2022-09-04T09:40:25.788Z,988.46
2022-09-04T09:41:25.774Z,988.45
2022-09-04T09:42:25.748Z,988.43
2022-09-04T09:43:25.927Z,988.43
2022-09-04T09:44:25.726Z,988.45
2022-09-04T09:45:25.736Z,988.40
2022-09-04T09:46:25.799Z,988.39
2022-09-04T09:47:25.691Z,988.38
2022-09-04T09:48:25.689Z,988.39
2022-09-04T09:49:25.700Z,988.36
2022-09-04T09:50:25.667Z,988.36
2022-09-04T09:51:25.652Z,988.33
2022-09-04T09:52:25.641Z,988.40
2022-09-04T09:53:25.829Z,988.44
2022-09-04T09:54:25.624Z,988.43
2022-09-04T09:55:25.629Z,988.40
2022-09-04T09:56:25.592Z,988.42
2022-09-04T09:57:33.405Z,988.38
2022-09-04T09:58:25.619Z,988.40
2022-09-04T09:59:25.580Z,988.42
2022-09-04T10:00:25.575Z,988.42
2022-09-04T10:01:25.676Z,988.41
2022-09-04T10:02:25.610Z,988.44
2022-09-04T10:03:25.831Z,988.44
2022-09-04T10:04:25.504Z,988.41
2022-09-04T10:05:25.501Z,988.38
2022-09-04T10:06:25.514Z,988.44
2022-09-04T10:07:25.485Z,988.43
2022-09-04T10:08:33.814Z,988.43
2022-09-04T10:09:25.475Z,988.42
2022-09-04T10:10:25.448Z,988.40
2022-09-04T10:11:25.478Z,988.38
2022-09-04T10:12:25.443Z,988.37
2022-09-04T10:13:25.660Z,988.39
2022-09-04T10:14:25.491Z,988.39
2022-09-04T10:15:25.396Z,988.38
2022-09-04T10:16:25.439Z,988.36
2022-09-04T10:17:25.395Z,988.34
2022-09-04T10:18:25.367Z,988.36
2022-09-04T10:19:25.352Z,988.43
2022-09-04T10:20:25.376Z,988.39
2022-09-04T10:21:25.335Z,988.36
2022-09-04T10:22:25.428Z,988.39
2022-09-04T10:23:25.484Z,988.33
2022-09-04T10:24:25.298Z,988.36
2022-09-04T10:25:25.287Z,988.34
2022-09-04T10:26:25.332Z,988.34
2022-09-04T10:27:25.294Z,988.33
2022-09-04T10:28:25.365Z,988.33
2022-09-04T10:29:25.290Z,988.36
2022-09-04T10:30:25.291Z,988.37
2022-09-04T10:31:25.231Z,988.38
2022-09-04T10:32:25.224Z,988.38
2022-09-04T10:33:25.445Z,988.39
2022-09-04T10:34:25.239Z,988.34
2022-09-04T10:35:25.444Z,988.37
2022-09-04T10:36:25.181Z,988.36
2022-09-04T10:37:25.159Z,988.36
2022-09-04T10:38:25.174Z,988.33
2022-09-04T10:39:25.240Z,988.33
2022-09-04T10:40:25.153Z,988.33
2022-09-04T10:41:25.138Z,988.29
2022-09-04T10:42:25.179Z,988.29
2022-09-04T10:43:25.143Z,988.28
2022-09-04T10:44:25.098Z,988.30
2022-09-04T10:45:25.076Z,988.31
2022-09-04T10:46:25.167Z,988.31
2022-09-04T10:47:25.063Z,988.31
2022-09-04T10:48:28.468Z,988.26
2022-09-04T10:49:25.045Z,988.29
2022-09-04T10:50:25.028Z,988.26
2022-09-04T10:51:25.045Z,988.28
2022-09-04T10:52:25.018Z,988.26
2022-09-04T10:53:25.102Z,988.26
2022-09-04T10:54:24.990Z,988.33
2022-09-04T10:55:24.979Z,988.30
2022-09-04T10:56:25.044Z,988.26
2022-09-04T10:57:25.001Z,988.27
2022-09-04T10:58:24.958Z,988.24
2022-09-04T10:59:24.931Z,988.27
2022-09-04T11:00:24.940Z,988.24
2022-09-04T11:01:24.960Z,988.25
2022-09-04T11:02:24.950Z,988.24
2022-09-04T11:03:24.999Z,988.24
2022-09-04T11:04:24.895Z,988.23
2022-09-04T11:05:24.919Z,988.23
2022-09-04T11:06:24.892Z,988.23
2022-09-04T11:07:28.564Z,988.24
2022-09-04T11:08:24.858Z,988.24
2022-09-04T11:09:24.861Z,988.26
2022-09-04T11:10:24.835Z,988.26
2022-09-04T11:11:24.822Z,988.24
2022-09-04T11:12:24.862Z,988.26
2022-09-04T11:13:24.935Z,988.24
2022-09-04T11:14:24.894Z,988.24
2022-09-04T11:15:24.801Z,988.24
2022-09-04T11:16:24.853Z,988.25
2022-09-04T11:17:24.833Z,988.26
2022-09-04T11:18:24.759Z,988.26
2022-09-04T11:19:24.840Z,988.27
2022-09-04T11:20:25.756Z,988.21
2022-09-04T11:21:24.714Z,988.18
2022-09-04T11:22:24.723Z,988.15
2022-09-04T11:23:24.855Z,988.14
2022-09-04T11:24:24.692Z,988.14
2022-09-04T11:25:24.678Z,988.15
2022-09-04T11:26:24.701Z,988.14
2022-09-04T11:27:24.673Z,988.16
2022-09-04T11:28:24.676Z,988.15
2022-09-04T11:29:24.624Z,988.12
2022-09-04T11:30:24.641Z,988.12
2022-09-04T11:31:24.721Z,988.12
2022-09-04T11:32:24.602Z,988.16
2022-09-04T11:33:24.706Z,988.17
2022-09-04T11:34:24.600Z,988.14
2022-09-04T11:35:24.572Z,988.14
2022-09-04T11:36:24.560Z,988.13
2022-09-04T11:37:24.639Z,988.11
2022-09-04T11:38:24.541Z,988.13
2022-09-04T11:39:24.593Z,988.12
2022-09-04T11:40:24.518Z,988.13
2022-09-04T11:41:24.505Z,988.15
2022-09-04T11:42:24.532Z,988.17
2022-09-04T11:43:24.666Z,988.17
2022-09-04T11:44:24.488Z,988.16
2022-09-04T11:45:24.591Z,988.09
2022-09-04T11:46:24.482Z,988.13
2022-09-04T11:47:24.504Z,988.08
2022-09-04T11:48:24.483Z,988.13
2022-09-04T11:49:24.422Z,988.14
2022-09-04T11:50:24.422Z,988.09
2022-09-04T11:51:24.396Z,988.10
2022-09-04T11:52:24.381Z,988.09
2022-09-04T11:53:24.528Z,988.09
2022-09-04T11:54:24.369Z,988.12
2022-09-04T11:55:24.361Z,988.15
2022-09-04T11:56:24.372Z,988.13
2022-09-04T11:57:24.334Z,988.11
2022-09-04T11:58:24.342Z,988.12
2022-09-04T11:59:24.326Z,988.10
2022-09-04T12:00:24.304Z,988.12
2022-09-04T12:01:24.311Z,988.10
2022-09-04T12:02:24.366Z,988.11
2022-09-04T12:03:24.377Z,988.11
2022-09-04T12:04:24.364Z,988.12
2022-09-04T12:05:24.269Z,988.11
2022-09-04T12:06:24.248Z,988.11
2022-09-04T12:07:24.229Z,988.12
2022-09-04T12:08:24.225Z,988.11
2022-09-04T12:09:24.233Z,988.11
2022-09-04T12:10:24.232Z,988.10
2022-09-04T12:11:24.193Z,988.12
2022-09-04T12:12:24.183Z,988.16
2022-09-04T12:13:24.181Z,988.11
2022-09-04T12:14:24.159Z,988.17
2022-09-04T12:15:24.195Z,988.20
2022-09-04T12:16:24.176Z,988.15
2022-09-04T12:17:24.150Z,988.17
2022-09-04T12:18:24.120Z,988.14
2022-09-04T12:19:24.107Z,988.15
2022-09-04T12:20:24.359Z,988.15
2022-09-04T12:21:24.109Z,988.17
2022-09-04T12:22:24.083Z,988.14
2022-09-04T12:23:24.227Z,988.13
2022-09-04T12:24:24.055Z,988.15
2022-09-04T12:25:24.080Z,988.13
2022-09-04T12:26:24.066Z,988.15
2022-09-04T12:27:24.026Z,988.15
2022-09-04T12:28:24.040Z,988.13
2022-09-04T12:29:24.013Z,988.15
2022-09-04T12:30:23.999Z,988.15